createdAt,value
2019-03-17T00:01:57.996Z,6.33
2019-03-17T00:04:47.595Z,6.27
2019-03-17T00:07:36.952Z,6.22
2019-03-17T00:10:26.366Z,6.24
2019-03-17T00:13:17.828Z,6.28
2019-03-17T00:16:06.619Z,6.25
2019-03-17T00:18:55.971Z,5.88
2019-03-17T00:21:46.254Z,6.07
2019-03-17T00:24:35.780Z,6.03
2019-03-17T00:27:25.783Z,6.06
2019-03-17T00:30:14.079Z,6.02
2019-03-17T00:33:03.595Z,5.94
2019-03-17T00:35:54.003Z,5.95
2019-03-17T00:38:43.771Z,5.86
2019-03-17T00:41:32.774Z,5.84
2019-03-17T00:44:22.711Z,5.77
2019-03-17T00:47:12.164Z,5.69
2019-03-17T00:50:02.604Z,5.28
2019-03-17T00:52:52.258Z,5.34
2019-03-17T00:55:41.688Z,5.54
2019-03-17T00:58:31.060Z,5.16
2019-03-17T01:01:20.599Z,5.22
2019-03-17T01:04:10.532Z,5.25
2019-03-17T01:06:59.934Z,5.23
2019-03-17T01:09:49.305Z,5.02
2019-03-17T01:12:38.754Z,5.04
2019-03-17T01:15:27.950Z,5.14
2019-03-17T01:18:17.410Z,5.31
2019-03-17T01:21:06.940Z,5.11
2019-03-17T01:23:57.306Z,5.13
2019-03-17T01:26:47.600Z,5.11
2019-03-17T01:29:37.309Z,4.93
2019-03-17T01:32:28.145Z,4.93
2019-03-17T01:35:17.560Z,4.75
2019-03-17T01:38:07.411Z,4.83
2019-03-17T01:40:57.031Z,4.80
2019-03-17T01:43:46.895Z,4.86
2019-03-17T01:46:36.463Z,4.77
2019-03-17T01:49:26.391Z,4.69
2019-03-17T01:52:16.444Z,4.62
2019-03-17T01:55:06.527Z,4.55
2019-03-17T01:57:55.894Z,4.55
2019-03-17T02:00:46.089Z,4.43
2019-03-17T02:03:36.164Z,4.48
2019-03-17T02:06:26.168Z,4.43
2019-03-17T02:09:15.783Z,4.37
2019-03-17T02:12:05.724Z,4.38
2019-03-17T02:14:54.829Z,4.36
2019-03-17T02:17:44.888Z,4.22
2019-03-17T02:20:34.933Z,4.20
2019-03-17T02:23:24.541Z,4.16
2019-03-17T02:26:13.853Z,4.19
2019-03-17T02:29:03.093Z,4.15
2019-03-17T02:31:52.435Z,4.13
2019-03-17T02:34:41.578Z,4.11
2019-03-17T02:37:31.385Z,4.02
2019-03-17T02:40:20.717Z,3.98
2019-03-17T02:43:10.172Z,4.04
2019-03-17T02:46:03.011Z,3.96
2019-03-17T02:48:51.448Z,3.90
2019-03-17T02:51:40.764Z,3.89
2019-03-17T02:54:30.165Z,3.78
2019-03-17T02:57:19.482Z,3.73
2019-03-17T03:00:10.746Z,3.78
2019-03-17T03:03:00.152Z,3.69
2019-03-17T03:05:55.189Z,3.68
2019-03-17T03:08:41.784Z,3.53
2019-03-17T03:11:32.986Z,3.52
2019-03-17T03:14:23.298Z,3.47
2019-03-17T03:17:13.195Z,3.56
2019-03-17T03:20:03.060Z,3.42
2019-03-17T03:22:51.969Z,3.37
2019-03-17T03:25:41.402Z,3.36
2019-03-17T03:28:31.261Z,3.35
2019-03-17T03:31:21.076Z,3.40
2019-03-17T03:34:10.691Z,2.92
2019-03-17T03:37:00.754Z,2.83
2019-03-17T03:39:49.293Z,2.10
2019-03-17T03:42:38.675Z,2.44
2019-03-17T03:45:28.450Z,2.44
2019-03-17T03:48:17.840Z,2.41
2019-03-17T03:51:07.650Z,2.68
2019-03-17T03:53:56.060Z,2.53
2019-03-17T03:56:46.252Z,2.39
2019-03-17T03:59:34.537Z,2.39
2019-03-17T04:02:24.375Z,2.71
2019-03-17T04:05:12.851Z,2.71
2019-03-17T04:08:02.822Z,2.70
2019-03-17T04:10:52.655Z,2.71
2019-03-17T04:13:42.026Z,2.82
2019-03-17T04:16:30.767Z,2.96
2019-03-17T04:19:18.918Z,2.18
2019-03-17T04:22:07.385Z,2.17
2019-03-17T04:24:55.905Z,2.07
2019-03-17T04:27:44.447Z,1.96
2019-03-17T04:30:33.312Z,1.68
2019-03-17T04:33:21.624Z,1.60
2019-03-17T04:36:09.863Z,1.76
2019-03-17T04:38:58.633Z,1.29
2019-03-17T04:41:46.545Z,1.61
2019-03-17T04:44:35.123Z,1.40
2019-03-17T04:47:23.672Z,1.72
2019-03-17T04:50:11.984Z,1.36
2019-03-17T04:53:00.309Z,1.69
2019-03-17T04:55:48.094Z,1.69
2019-03-17T04:58:36.584Z,1.78
2019-03-17T05:01:24.711Z,1.99
2019-03-17T05:04:13.059Z,1.67
2019-03-17T05:07:01.195Z,1.75
2019-03-17T05:09:49.892Z,1.70
2019-03-17T05:12:37.687Z,1.96
2019-03-17T05:15:25.377Z,1.93
2019-03-17T05:18:13.127Z,2.48
2019-03-17T05:21:01.358Z,2.36
2019-03-17T05:23:50.260Z,2.64
2019-03-17T05:26:39.266Z,2.96
2019-03-17T05:29:26.911Z,3.28
2019-03-17T05:32:15.291Z,2.84
2019-03-17T05:35:03.472Z,2.92
2019-03-17T05:37:51.646Z,2.76
2019-03-17T05:40:42.615Z,3.20
2019-03-17T05:43:30.925Z,3.76
2019-03-17T05:46:19.348Z,3.87
2019-03-17T05:49:08.258Z,4.25
2019-03-17T05:52:00.425Z,4.57
2019-03-17T05:54:48.398Z,4.55
2019-03-17T05:57:36.746Z,4.93
2019-03-17T06:00:25.356Z,5.25
2019-03-17T06:03:13.378Z,5.55
2019-03-17T06:06:01.896Z,5.88
2019-03-17T06:08:50.444Z,6.10
2019-03-17T06:11:39.009Z,6.27
2019-03-17T06:14:27.337Z,6.58
2019-03-17T06:17:15.173Z,6.69
2019-03-17T06:20:03.388Z,6.49
2019-03-17T06:22:52.062Z,6.32
2019-03-17T06:25:39.589Z,6.33
2019-03-17T06:28:28.557Z,6.63
2019-03-17T06:31:16.250Z,6.91
2019-03-17T06:34:05.147Z,7.04
2019-03-17T06:36:52.987Z,7.44
2019-03-17T06:39:41.467Z,7.60
2019-03-17T06:42:29.266Z,8.11
2019-03-17T06:45:17.951Z,8.53
2019-03-17T06:48:06.051Z,8.92
2019-03-17T06:50:54.573Z,9.20
2019-03-17T06:53:42.325Z,9.63
2019-03-17T06:56:33.071Z,9.39
2019-03-17T06:59:21.396Z,9.22
2019-03-17T07:02:09.719Z,9.34
2019-03-17T07:04:57.879Z,9.63
2019-03-17T07:07:46.421Z,10.06
2019-03-17T07:10:34.195Z,10.30
2019-03-17T07:13:22.825Z,10.31
2019-03-17T07:16:11.266Z,10.69
2019-03-17T07:18:59.701Z,10.83
2019-03-17T07:21:47.480Z,11.14
2019-03-17T07:24:36.224Z,11.15
2019-03-17T07:27:24.436Z,11.46
2019-03-17T07:30:13.862Z,11.69
2019-03-17T07:33:02.562Z,11.23
2019-03-17T07:35:51.713Z,11.32
2019-03-17T07:38:43.679Z,11.49
2019-03-17T07:41:32.164Z,11.83
2019-03-17T07:44:20.288Z,12.32
2019-03-17T07:47:08.893Z,12.68
2019-03-17T07:49:56.694Z,12.75
2019-03-17T07:52:45.244Z,13.03
2019-03-17T07:55:33.798Z,13.05
2019-03-17T07:58:23.371Z,13.23
2019-03-17T08:01:11.463Z,13.55
2019-03-17T08:04:01.107Z,13.99
2019-03-17T08:06:49.336Z,13.88
2019-03-17T08:09:37.994Z,14.06
2019-03-17T08:12:26.399Z,14.46
2019-03-17T08:15:14.198Z,14.58
2019-03-17T08:18:01.980Z,14.74
2019-03-17T08:20:50.349Z,14.84
2019-03-17T08:23:38.783Z,15.10
2019-03-17T08:26:27.297Z,15.37
2019-03-17T08:29:15.929Z,15.53
2019-03-17T08:32:05.815Z,15.73
2019-03-17T08:34:54.768Z,15.94
2019-03-17T08:37:44.285Z,15.77
2019-03-17T08:40:34.203Z,15.52
2019-03-17T08:43:23.467Z,15.88
2019-03-17T08:46:12.851Z,16.13
2019-03-17T08:49:02.202Z,16.21
2019-03-17T08:51:52.457Z,16.23
2019-03-17T08:54:47.441Z,16.74
2019-03-17T08:57:37.177Z,16.79
2019-03-17T09:00:26.621Z,17.11
2019-03-17T09:03:15.404Z,17.29
2019-03-17T09:06:04.908Z,17.45
2019-03-17T09:08:54.329Z,17.46
2019-03-17T09:11:44.179Z,17.75
2019-03-17T09:14:33.633Z,17.62
2019-03-17T09:17:23.286Z,17.45
2019-03-17T09:20:12.476Z,17.71
2019-03-17T09:23:01.945Z,18.12
2019-03-17T09:25:51.638Z,18.35
2019-03-17T09:28:41.567Z,18.44
2019-03-17T09:31:31.040Z,18.54
2019-03-17T09:34:20.933Z,18.69
2019-03-17T09:37:10.931Z,18.12
2019-03-17T09:40:01.104Z,18.58
2019-03-17T09:42:51.191Z,19.02
2019-03-17T09:45:40.599Z,18.79
2019-03-17T09:48:30.494Z,18.53
2019-03-17T09:51:19.643Z,18.43
2019-03-17T09:54:09.460Z,19.04
2019-03-17T09:56:59.332Z,19.48
2019-03-17T09:59:49.998Z,19.06
2019-03-17T10:02:40.235Z,18.52
2019-03-17T10:05:29.960Z,19.18
2019-03-17T10:08:19.275Z,19.37
2019-03-17T10:11:10.755Z,19.66
2019-03-17T10:13:59.960Z,19.92
2019-03-17T10:16:49.665Z,19.68
2019-03-17T10:19:39.127Z,19.38
2019-03-17T10:22:28.975Z,19.64
2019-03-17T10:25:19.213Z,19.84
2019-03-17T10:28:08.337Z,20.14
2019-03-17T10:30:58.071Z,20.43
2019-03-17T10:33:47.893Z,20.34
2019-03-17T10:36:37.967Z,20.61
2019-03-17T10:39:27.590Z,20.96
2019-03-17T10:42:17.677Z,21.01
2019-03-17T10:45:07.327Z,21.01
2019-03-17T10:47:56.976Z,21.05
2019-03-17T10:50:49.758Z,20.92
2019-03-17T10:53:38.254Z,21.13
2019-03-17T10:56:27.652Z,20.88
2019-03-17T10:59:17.065Z,21.10
2019-03-17T11:13:14.886Z,21.05
2019-03-17T11:16:04.373Z,21.15
2019-03-17T11:18:53.930Z,21.49
2019-03-17T11:21:43.496Z,21.43
2019-03-17T11:24:32.831Z,21.38
2019-03-17T11:27:22.076Z,21.11
2019-03-17T11:30:13.266Z,21.15
2019-03-17T11:33:02.801Z,20.99
2019-03-17T11:35:51.889Z,21.78
2019-03-17T11:38:41.195Z,21.53
2019-03-17T11:41:30.744Z,21.46
2019-03-17T11:44:20.038Z,21.75
2019-03-17T11:47:11.523Z,21.48
2019-03-17T11:50:00.575Z,21.74
2019-03-17T11:52:51.168Z,22.13
2019-03-17T11:55:40.849Z,21.62
2019-03-17T11:58:30.242Z,21.81
2019-03-17T12:01:19.692Z,22.21
2019-03-17T12:04:09.377Z,21.50
2019-03-17T12:06:58.635Z,21.59
2019-03-17T12:09:50.514Z,21.54
2019-03-17T12:12:38.337Z,20.73
2019-03-17T12:15:27.895Z,21.01
2019-03-17T12:18:17.142Z,21.40
2019-03-17T12:21:06.947Z,21.12
2019-03-17T12:23:56.181Z,21.54
2019-03-17T12:26:45.738Z,21.37
2019-03-17T12:29:34.989Z,21.39
2019-03-17T12:32:24.865Z,21.51
2019-03-17T12:35:14.238Z,21.82
2019-03-17T12:38:03.398Z,21.98
2019-03-17T12:40:52.165Z,22.04
2019-03-17T12:43:41.154Z,22.46
2019-03-17T12:46:30.473Z,22.25
2019-03-17T12:49:19.723Z,22.24
2019-03-17T12:52:08.929Z,22.48
2019-03-17T12:54:58.324Z,21.94
2019-03-17T12:57:47.604Z,22.34
2019-03-17T13:00:36.342Z,22.43
2019-03-17T13:03:25.193Z,22.03
2019-03-17T13:06:14.068Z,22.03
2019-03-17T13:09:04.668Z,22.39
2019-03-17T13:11:54.244Z,22.44
2019-03-17T13:14:43.771Z,22.65
2019-03-17T13:17:33.489Z,22.52
2019-03-17T13:20:23.005Z,22.65
2019-03-17T13:23:12.433Z,22.63
2019-03-17T13:26:01.354Z,22.25
2019-03-17T13:28:50.961Z,22.05
2019-03-17T13:31:40.258Z,21.85
2019-03-17T13:34:29.098Z,21.77
2019-03-17T13:37:18.477Z,22.21
2019-03-17T13:40:09.395Z,22.39
2019-03-17T13:42:58.849Z,22.69
2019-03-17T13:45:48.618Z,23.20
2019-03-17T13:48:37.882Z,24.36
2019-03-17T13:51:26.950Z,24.62
2019-03-17T13:54:16.447Z,24.60
2019-03-17T13:57:05.641Z,24.65
2019-03-17T13:59:55.286Z,24.21
2019-03-17T14:02:44.987Z,24.60
2019-03-17T14:05:33.739Z,25.52
2019-03-17T14:08:23.024Z,25.27
2019-03-17T14:11:12.371Z,24.30
2019-03-17T14:14:01.682Z,24.93
2019-03-17T14:16:51.003Z,24.93
2019-03-17T14:19:40.745Z,25.51
2019-03-17T14:22:35.195Z,24.80
2019-03-17T14:25:27.965Z,25.92
2019-03-17T14:28:17.053Z,25.92
2019-03-17T14:31:06.651Z,26.36
2019-03-17T14:33:55.849Z,26.32
2019-03-17T14:36:45.219Z,25.55
2019-03-17T14:39:34.612Z,24.92
2019-03-17T14:42:24.565Z,25.87
2019-03-17T14:45:14.714Z,25.52
2019-03-17T14:48:04.855Z,24.46
2019-03-17T14:50:54.235Z,25.79
2019-03-17T14:53:43.729Z,25.23
2019-03-17T14:56:33.123Z,23.94
2019-03-17T14:59:22.511Z,22.23
2019-03-17T15:02:11.867Z,21.21
2019-03-17T15:05:01.077Z,20.95
2019-03-17T15:07:50.463Z,20.86
2019-03-17T15:10:40.200Z,20.70
2019-03-17T15:13:28.209Z,20.67
2019-03-17T15:16:16.354Z,20.52
2019-03-17T15:19:04.787Z,20.30
2019-03-17T15:21:53.017Z,20.13
2019-03-17T15:24:41.250Z,20.13
2019-03-17T15:27:29.698Z,19.84
2019-03-17T15:30:19.103Z,19.90
2019-03-17T15:33:07.051Z,19.89
2019-03-17T15:35:55.481Z,19.65
2019-03-17T15:38:43.514Z,19.80
2019-03-17T15:41:31.323Z,19.76
2019-03-17T15:44:19.544Z,19.34
2019-03-17T15:47:07.640Z,19.45
2019-03-17T15:49:55.714Z,19.20
2019-03-17T15:52:44.053Z,18.64
2019-03-17T15:55:32.656Z,18.89
2019-03-17T15:58:20.542Z,18.46
2019-03-17T16:01:09.076Z,18.55
2019-03-17T16:03:57.179Z,18.37
2019-03-17T16:06:45.272Z,18.12
2019-03-17T16:09:33.245Z,17.87
2019-03-17T16:12:21.689Z,17.55
2019-03-17T16:15:10.822Z,17.15
2019-03-17T16:17:58.845Z,16.86
2019-03-17T16:20:49.797Z,16.29
2019-03-17T16:23:38.136Z,16.19
2019-03-17T16:26:26.113Z,16.00
2019-03-17T16:29:14.313Z,15.99
2019-03-17T16:32:02.509Z,15.89
2019-03-17T16:34:50.823Z,15.60
2019-03-17T16:37:38.517Z,15.40
2019-03-17T16:40:26.968Z,15.10
2019-03-17T16:43:15.386Z,14.66
2019-03-17T16:46:04.048Z,14.44
2019-03-17T16:48:52.744Z,13.69
2019-03-17T16:51:40.441Z,13.66
2019-03-17T16:54:31.052Z,13.70
2019-03-17T16:57:19.559Z,13.66
2019-03-17T17:00:09.007Z,13.82
2019-03-17T17:02:57.143Z,13.59
2019-03-17T17:05:45.260Z,13.58
2019-03-17T17:08:33.711Z,13.63
2019-03-17T17:11:21.902Z,13.65
2019-03-17T17:14:09.848Z,13.48
2019-03-17T17:16:57.961Z,13.32
2019-03-17T17:19:46.586Z,13.12
2019-03-17T17:22:34.264Z,13.03
2019-03-17T17:25:22.463Z,12.88
2019-03-17T17:28:10.669Z,12.62
2019-03-17T17:30:59.101Z,12.47
2019-03-17T17:33:47.700Z,12.55
2019-03-17T17:36:35.862Z,12.37
2019-03-17T17:39:24.258Z,12.23
2019-03-17T17:42:11.880Z,12.07
2019-03-17T17:45:00.367Z,12.03
2019-03-17T17:47:48.962Z,11.57
2019-03-17T17:50:36.815Z,11.53
2019-03-17T17:53:25.355Z,11.59
2019-03-17T17:56:13.815Z,11.59
2019-03-17T17:59:02.343Z,11.49
2019-03-17T18:01:50.478Z,11.38
2019-03-17T18:04:38.934Z,11.28
2019-03-17T18:07:27.004Z,11.32
2019-03-17T18:10:15.208Z,11.22
2019-03-17T18:13:03.789Z,11.09
2019-03-17T18:15:51.707Z,10.98
2019-03-17T18:18:39.736Z,10.69
2019-03-17T18:21:28.014Z,10.44
2019-03-17T18:24:16.100Z,10.29
2019-03-17T18:27:04.704Z,9.77
2019-03-17T18:29:53.230Z,9.91
2019-03-17T18:32:41.460Z,10.03
2019-03-17T18:35:29.971Z,10.38
2019-03-17T18:38:18.663Z,10.24
2019-03-17T18:41:07.123Z,9.53
2019-03-17T18:43:55.020Z,9.72
2019-03-17T18:46:43.104Z,9.62
2019-03-17T18:49:30.864Z,9.54
2019-03-17T18:52:19.409Z,9.42
2019-03-17T18:55:07.695Z,9.31
2019-03-17T18:57:55.935Z,9.27
2019-03-17T19:00:44.562Z,8.95
2019-03-17T19:03:32.303Z,9.14
2019-03-17T19:06:20.852Z,8.86
2019-03-17T19:09:09.289Z,8.66
2019-03-17T19:11:57.891Z,8.80
2019-03-17T19:14:46.288Z,8.82
2019-03-17T19:17:34.639Z,8.89
2019-03-17T19:20:22.989Z,9.10
2019-03-17T19:23:11.457Z,9.39
2019-03-17T19:25:59.539Z,9.34
2019-03-17T19:28:48.036Z,9.24
2019-03-17T19:31:36.632Z,9.08
2019-03-17T19:34:24.402Z,9.03
2019-03-17T19:37:12.862Z,9.08
2019-03-17T19:40:01.832Z,8.88
2019-03-17T19:42:58.481Z,8.76
2019-03-17T19:45:39.929Z,8.65
2019-03-17T19:48:28.422Z,8.59
2019-03-17T19:51:18.932Z,8.60
2019-03-17T19:54:05.962Z,8.44
2019-03-17T19:56:54.718Z,8.39
2019-03-17T19:59:42.837Z,8.35
2019-03-17T20:02:31.022Z,8.27
2019-03-17T20:05:19.540Z,8.34
2019-03-17T20:08:07.484Z,8.16
2019-03-17T20:10:56.074Z,8.26
2019-03-17T20:13:44.113Z,8.08
2019-03-17T20:16:32.554Z,7.85
2019-03-17T20:19:21.172Z,7.61
2019-03-17T20:22:09.100Z,7.33
2019-03-17T20:24:57.476Z,6.98
2019-03-17T20:27:45.804Z,6.83
2019-03-17T20:30:33.992Z,6.76
2019-03-17T20:33:22.495Z,6.40
2019-03-17T20:36:10.542Z,6.60
2019-03-17T20:38:58.254Z,6.47
2019-03-17T20:41:46.847Z,6.28
2019-03-17T20:44:34.864Z,6.02
2019-03-17T20:47:23.594Z,5.48
2019-03-17T20:50:11.858Z,5.73
2019-03-17T20:52:59.948Z,5.91
2019-03-17T20:55:48.496Z,6.03
2019-03-17T20:58:36.822Z,6.17
2019-03-17T21:01:24.987Z,6.19
2019-03-17T21:04:13.472Z,6.42
2019-03-17T21:07:02.011Z,6.03
2019-03-17T21:09:50.191Z,5.68
2019-03-17T21:12:37.963Z,5.64
2019-03-17T21:15:26.224Z,5.51
2019-03-17T21:18:13.868Z,5.74
2019-03-17T21:21:01.896Z,6.06
2019-03-17T21:23:49.911Z,5.71
2019-03-17T21:26:37.794Z,5.47
2019-03-17T21:29:26.170Z,5.28
2019-03-17T21:32:14.776Z,5.08
2019-03-17T21:35:02.509Z,4.89
2019-03-17T21:37:50.583Z,4.82
2019-03-17T21:40:38.657Z,4.93
2019-03-17T21:43:27.184Z,5.09
2019-03-17T21:46:15.665Z,5.38
2019-03-17T21:49:04.009Z,5.46
2019-03-17T21:51:52.448Z,4.76
2019-03-17T21:54:40.541Z,4.49
2019-03-17T21:57:28.303Z,4.49
2019-03-17T22:00:17.179Z,4.50
2019-03-17T22:03:05.037Z,4.55
2019-03-17T22:05:53.498Z,4.43
2019-03-17T22:08:41.984Z,4.20
2019-03-17T22:11:30.646Z,4.04
2019-03-17T22:14:18.673Z,4.14
2019-03-17T22:17:06.551Z,4.26
2019-03-17T22:19:54.809Z,4.31
2019-03-17T22:22:43.377Z,4.35
2019-03-17T22:25:31.084Z,4.18
2019-03-17T22:28:19.844Z,3.86
2019-03-17T22:31:07.997Z,4.08
2019-03-17T22:33:56.605Z,4.06
2019-03-17T22:36:44.601Z,4.44
2019-03-17T22:39:34.289Z,4.67
2019-03-17T22:42:22.651Z,4.68
2019-03-17T22:45:11.029Z,4.46
2019-03-17T22:47:59.148Z,4.51
2019-03-17T22:50:47.148Z,4.71
2019-03-17T22:53:35.131Z,4.59
2019-03-17T22:56:23.568Z,4.34
2019-03-17T22:59:11.716Z,4.02
2019-03-17T23:01:59.633Z,3.45
2019-03-17T23:04:47.842Z,3.39
2019-03-17T23:07:36.233Z,2.97
2019-03-17T23:10:24.609Z,2.91
2019-03-17T23:13:13.298Z,2.80
2019-03-17T23:16:01.437Z,2.56
2019-03-17T23:18:49.611Z,2.70
2019-03-17T23:21:38.066Z,2.78
2019-03-17T23:24:25.935Z,2.93
2019-03-17T23:27:13.912Z,3.06
2019-03-17T23:30:01.590Z,3.27
2019-03-17T23:32:52.968Z,3.44
2019-03-17T23:35:41.068Z,3.51
2019-03-17T23:38:29.610Z,3.06
2019-03-17T23:41:18.152Z,2.41
2019-03-17T23:44:06.130Z,1.98
2019-03-17T23:46:54.593Z,2.14
2019-03-17T23:49:42.977Z,2.45
2019-03-17T23:52:31.628Z,2.83
2019-03-17T23:55:19.337Z,2.99
2019-03-17T23:58:07.740Z,3.08
